Time;durP1;ratioP1;P1;durP2;ratioP2;P2;SDS_P1;SDS_P2;PMS_P1;PMS_P2;Temp;Humidity;BMP_temperature;BMP_pressure;BME280_temperature;BME280_humidity;BME280_pressure;Samples;Min_cycle;Max_cycle;Signal;HPM_P1;HPM_P2
2023/12/10 00:00:40;;;;;;;3.97;1.77;;;22.30;51.90;;;;;;4877448;28;87747;-81
2023/12/10 00:03:06;;;;;;;7.32;2.25;;;22.30;52.00;;;;;;4873596;28;88035;-81
2023/12/10 00:05:31;;;;;;;3.90;1.85;;;22.20;51.80;;;;;;4871972;28;89490;-81
2023/12/10 00:07:58;;;;;;;2.95;1.63;;;22.20;51.90;;;;;;4858149;28;87891;-80
2023/12/10 00:10:23;;;;;;;6.25;1.42;;;22.20;51.70;;;;;;4874257;28;88102;-79
2023/12/10 00:12:49;;;;;;;4.15;1.85;;;22.20;51.90;;;;;;4877635;28;89222;-80
2023/12/10 00:15:15;;;;;;;5.28;1.95;;;22.20;51.90;;;;;;4875228;28;89281;-81
2023/12/10 00:17:41;;;;;;;5.30;1.83;;;22.20;51.90;;;;;;4876768;28;88501;-83
2023/12/10 00:20:08;;;;;;;3.88;1.80;;;22.20;51.90;;;;;;4873395;28;87738;-81
2023/12/10 00:22:34;;;;;;;5.20;1.50;;;22.10;52.00;;;;;;4880478;28;87881;-79
2023/12/10 00:25:00;;;;;;;4.10;1.77;;;22.10;52.00;;;;;;4873220;28;88354;-82
2023/12/10 00:27:25;;;;;;;3.70;1.45;;;22.10;52.00;;;;;;4874737;28;87727;-80
2023/12/10 00:29:52;;;;;;;7.28;2.17;;;22.10;52.00;;;;;;4875734;28;92734;-80
2023/12/10 00:32:18;;;;;;;3.70;1.67;;;22.10;51.90;;;;;;4877085;28;88637;-81
2023/12/10 00:34:43;;;;;;;3.22;1.48;;;22.10;52.00;;;;;;4874625;28;88003;-82
2023/12/10 00:37:09;;;;;;;6.80;2.08;;;22.00;51.90;;;;;;4874601;28;88801;-82
2023/12/10 00:39:35;;;;;;;3.75;1.90;;;22.00;51.80;;;;;;4874840;28;87817;-80
2023/12/10 00:42:01;;;;;;;5.57;1.80;;;22.00;52.10;;;;;;4874194;28;88208;-81
2023/12/10 00:44:28;;;;;;;3.95;1.67;;;22.00;52.10;;;;;;4873244;28;89232;-81
2023/12/10 00:46:54;;;;;;;4.30;2.00;;;22.00;51.80;;;;;;4872627;28;87006;-80
2023/12/10 00:49:19;;;;;;;3.40;1.65;;;21.90;51.80;;;;;;4872930;28;87995;-80
2023/12/10 00:51:45;;;;;;;4.60;1.85;;;21.90;51.90;;;;;;4876349;28;88686;-80
2023/12/10 00:54:10;;;;;;;4.30;1.65;;;21.90;51.90;;;;;;4877207;28;89015;-79
2023/12/10 00:56:36;;;;;;;4.68;1.63;;;21.90;51.80;;;;;;4872582;28;87178;-80
2023/12/10 00:59:02;;;;;;;3.38;1.63;;;21.90;51.80;;;;;;4873071;28;87828;-81
2023/12/10 01:01:27;;;;;;;3.78;1.73;;;21.90;51.80;;;;;;4875880;28;91357;-79
2023/12/10 01:03:53;;;;;;;3.45;1.48;;;21.80;51.70;;;;;;4872133;28;89634;-82
2023/12/10 01:06:19;;;;;;;5.57;1.80;;;21.80;51.80;;;;;;4874863;28;87347;-81
2023/12/10 01:08:45;;;;;;;5.63;1.80;;;21.80;51.80;;;;;;4876683;28;88019;-80
2023/12/10 01:11:10;;;;;;;6.70;1.92;;;21.80;51.80;;;;;;4876260;28;89897;-79
2023/12/10 01:13:36;;;;;;;4.95;2.17;;;21.80;51.80;;;;;;4872107;28;89615;-79
2023/12/10 01:16:04;;;;;;;2.72;1.58;;;21.80;51.80;;;;;;4870585;28;87821;-81
2023/12/10 01:18:32;;;;;;;6.10;2.40;;;21.80;51.80;;;;;;4879288;28;87539;-79
2023/12/10 01:20:58;;;;;;;5.70;2.00;;;21.80;51.70;;;;;;4859061;28;91942;-80
2023/12/10 01:23:24;;;;;;;5.15;1.90;;;21.70;51.80;;;;;;4871665;28;88594;-81
2023/12/10 01:25:50;;;;;;;3.83;1.85;;;21.70;51.70;;;;;;4877020;28;88404;-79
2023/12/10 01:28:16;;;;;;;3.55;1.40;;;21.70;51.90;;;;;;4874535;28;88188;-80
2023/12/10 01:30:41;;;;;;;6.72;2.17;;;21.70;51.70;;;;;;4871542;28;88356;-83
2023/12/10 01:33:07;;;;;;;5.82;2.38;;;21.70;51.70;;;;;;4857117;28;90867;-80
2023/12/10 01:35:33;;;;;;;4.20;1.77;;;21.60;51.70;;;;;;4877138;28;87957;-82
2023/12/10 01:37:59;;;;;;;3.53;1.67;;;21.70;51.70;;;;;;4873854;28;88049;-80
2023/12/10 01:40:25;;;;;;;4.82;1.73;;;21.70;51.80;;;;;;4873495;28;87990;-82
2023/12/10 01:42:51;;;;;;;4.90;2.13;;;21.60;51.70;;;;;;4856531;28;89415;-79
2023/12/10 01:45:19;;;;;;;7.05;2.00;;;21.60;51.50;;;;;;4875556;28;87855;-80
2023/12/10 01:47:51;;;;;;;7.45;2.03;;;21.60;51.50;;;;;;4872546;28;87459;-81
2023/12/10 01:50:18;;;;;;;3.08;1.40;;;21.60;51.50;;;;;;4874320;28;88782;-78
2023/12/10 01:52:45;;;;;;;5.18;1.73;;;21.60;51.40;;;;;;4874851;28;87415;-79
2023/12/10 01:55:12;;;;;;;4.25;1.75;;;21.60;51.40;;;;;;4873389;28;87754;-81
2023/12/10 01:57:38;;;;;;;4.93;1.73;;;21.50;51.30;;;;;;4871676;28;88750;-79
2023/12/10 02:00:08;;;;;;;6.38;2.05;;;21.50;51.30;;;;;;4871835;28;88660;-80
2023/12/10 02:02:35;;;;;;;3.88;1.77;;;21.50;51.30;;;;;;4838945;28;88695;-79
2023/12/10 02:05:06;;;;;;;5.50;2.08;;;21.50;51.20;;;;;;4874666;28;87738;-81
2023/12/10 02:07:33;;;;;;;6.93;2.33;;;21.50;51.30;;;;;;4873471;28;88083;-81
2023/12/10 02:09:59;;;;;;;4.60;1.67;;;21.50;51.20;;;;;;4875334;28;88469;-81
2023/12/10 02:12:27;;;;;;;4.18;1.83;;;21.50;51.40;;;;;;4874168;28;88795;-79
2023/12/10 02:14:53;;;;;;;6.75;1.75;;;21.50;51.20;;;;;;4874847;28;89210;-81
2023/12/10 02:17:19;;;;;;;5.05;1.63;;;21.50;51.10;;;;;;4871939;28;87873;-82
2023/12/10 02:19:44;;;;;;;4.35;2.00;;;21.50;51.30;;;;;;4874416;28;88288;-79
2023/12/10 02:22:13;;;;;;;3.70;1.58;;;21.40;51.20;;;;;;4872407;28;87904;-81
2023/12/10 02:24:50;;;;;;;4.53;1.55;;;21.40;51.10;;;;;;4869881;28;87530;-80
2023/12/10 02:27:16;;;;;;;4.80;1.75;;;21.40;51.30;;;;;;4857364;28;88301;-82
2023/12/10 02:29:42;;;;;;;7.57;2.72;;;21.40;51.30;;;;;;4875520;28;88685;-79
2023/12/10 02:32:08;;;;;;;6.60;2.28;;;21.40;51.20;;;;;;4870403;28;88177;-80
2023/12/10 02:34:35;;;;;;;5.95;1.90;;;21.30;51.20;;;;;;4860792;28;87866;-80
2023/12/10 02:37:01;;;;;;;4.60;1.77;;;21.40;51.10;;;;;;4873728;28;87943;-81
2023/12/10 02:39:26;;;;;;;4.45;1.63;;;21.30;51.00;;;;;;4872833;28;89550;-81
2023/12/10 02:41:52;;;;;;;3.97;1.80;;;21.40;51.20;;;;;;4877280;28;89109;-79
2023/12/10 02:44:18;;;;;;;4.63;1.73;;;21.30;51.10;;;;;;4854903;28;88147;-80
2023/12/10 02:46:52;;;;;;;6.70;2.35;;;21.30;51.10;;;;;;4880378;28;87808;-82
2023/12/10 02:49:18;;;;;;;4.63;1.75;;;21.30;51.10;;;;;;4871187;28;88055;-81
2023/12/10 02:51:44;;;;;;;5.57;2.35;;;21.30;51.10;;;;;;4872158;28;88377;-81
2023/12/10 02:54:09;;;;;;;5.38;2.17;;;21.30;51.00;;;;;;4875304;28;87511;-80
2023/12/10 02:56:35;;;;;;;4.80;1.90;;;21.30;50.90;;;;;;4882603;28;86679;-82
2023/12/10 02:59:00;;;;;;;6.18;2.28;;;21.20;51.00;;;;;;4873865;28;88760;-80
2023/12/10 03:01:27;;;;;;;5.50;1.95;;;21.20;51.10;;;;;;4871872;28;87941;-81
2023/12/10 03:03:53;;;;;;;4.85;1.92;;;21.20;51.00;;;;;;4869338;28;89049;-81
2023/12/10 03:06:18;;;;;;;6.05;2.30;;;21.30;51.10;;;;;;4873220;28;88193;-82
2023/12/10 03:08:44;;;;;;;5.68;2.05;;;21.20;51.30;;;;;;4876320;28;88824;-82
2023/12/10 03:11:10;;;;;;;7.13;2.53;;;21.20;50.90;;;;;;4876979;28;88009;-82
2023/12/10 03:13:35;;;;;;;6.75;2.45;;;21.20;50.90;;;;;;4878747;28;87314;-80
2023/12/10 03:16:01;;;;;;;6.03;2.30;;;21.20;51.00;;;;;;4873958;28;88233;-83
2023/12/10 03:18:27;;;;;;;4.65;1.83;;;21.20;50.90;;;;;;4875750;28;87665;-80
2023/12/10 03:20:53;;;;;;;3.55;1.67;;;21.20;50.90;;;;;;4879120;28;89666;-79
2023/12/10 03:23:19;;;;;;;5.65;1.90;;;21.20;50.90;;;;;;4877582;28;87132;-82
2023/12/10 03:25:45;;;;;;;5.35;1.98;;;21.20;50.90;;;;;;4876436;28;87943;-80
2023/12/10 03:28:11;;;;;;;7.20;1.92;;;21.10;50.90;;;;;;4877140;28;89288;-81
2023/12/10 03:30:36;;;;;;;5.38;2.17;;;21.10;50.80;;;;;;4872165;28;88924;-81
2023/12/10 03:33:02;;;;;;;7.43;2.55;;;21.20;50.90;;;;;;4878120;28;87886;-82
2023/12/10 03:35:27;;;;;;;10.00;2.70;;;21.10;50.80;;;;;;4875455;28;88324;-77
2023/12/10 03:37:53;;;;;;;4.80;2.22;;;21.10;50.70;;;;;;4877637;28;88588;-82
2023/12/10 03:40:19;;;;;;;3.95;1.58;;;21.10;50.70;;;;;;4877331;28;88012;-80
2023/12/10 03:42:44;;;;;;;3.60;1.60;;;21.10;50.80;;;;;;4874830;28;87651;-78
2023/12/10 03:45:10;;;;;;;6.72;2.05;;;21.10;50.70;;;;;;4877211;28;86886;-82
2023/12/10 03:47:36;;;;;;;5.65;2.25;;;21.10;50.80;;;;;;4872279;28;88548;-79
2023/12/10 03:50:05;;;;;;;7.00;2.60;;;21.00;50.70;;;;;;4876201;28;87775;-81
2023/12/10 03:52:31;;;;;;;7.03;2.10;;;21.00;50.80;;;;;;4872756;28;88180;-82
2023/12/10 03:54:56;;;;;;;4.35;1.83;;;21.10;50.90;;;;;;4858787;28;88791;-80
2023/12/10 03:57:22;;;;;;;4.25;1.80;;;21.00;50.80;;;;;;4877075;28;87590;-82
2023/12/10 03:59:48;;;;;;;5.15;2.03;;;21.00;50.60;;;;;;4869921;28;92375;-82
2023/12/10 04:02:13;;;;;;;5.30;1.85;;;21.00;50.70;;;;;;4870233;28;87556;-81
2023/12/10 04:04:39;;;;;;;5.38;1.65;;;21.00;50.80;;;;;;4876478;28;87735;-80
2023/12/10 04:07:05;;;;;;;6.95;2.25;;;21.00;50.70;;;;;;4870892;28;88927;-81
2023/12/10 04:09:31;;;;;;;5.82;2.05;;;21.00;50.60;;;;;;4874882;28;88215;-82
2023/12/10 04:11:58;;;;;;;5.82;1.80;;;21.00;50.70;;;;;;4857107;28;87826;-80
2023/12/10 04:14:24;;;;;;;4.75;2.35;;;21.00;50.70;;;;;;4875626;28;87813;-80
2023/12/10 04:16:49;;;;;;;6.07;1.70;;;21.00;50.70;;;;;;4875884;28;89972;-82
2023/12/10 04:19:15;;;;;;;5.53;1.67;;;20.90;50.70;;;;;;4873745;28;88192;-80
2023/12/10 04:21:40;;;;;;;3.90;1.70;;;20.90;50.50;;;;;;4878424;28;88205;-82
2023/12/10 04:24:06;;;;;;;4.68;1.98;;;20.90;50.70;;;;;;4874380;28;87464;-79
2023/12/10 04:26:32;;;;;;;4.65;2.25;;;20.90;50.60;;;;;;4873136;28;88230;-81
2023/12/10 04:28:57;;;;;;;3.92;1.77;;;20.90;51.20;;;;;;4872103;28;87837;-80
2023/12/10 04:31:23;;;;;;;7.40;2.20;;;20.90;50.60;;;;;;4876758;28;88151;-80
2023/12/10 04:33:48;;;;;;;5.60;2.22;;;20.90;50.50;;;;;;4872181;28;87260;-83
2023/12/10 04:36:14;;;;;;;6.47;1.80;;;20.90;50.50;;;;;;4874628;28;87862;-81
2023/12/10 04:38:40;;;;;;;6.15;2.38;;;20.80;50.60;;;;;;4871116;28;88256;-82
2023/12/10 04:41:06;;;;;;;5.88;2.28;;;20.80;50.40;;;;;;4875304;28;88776;-79
2023/12/10 04:43:31;;;;;;;7.28;2.47;;;20.80;50.40;;;;;;4876701;28;86946;-80
2023/12/10 04:45:58;;;;;;;6.22;2.08;;;20.80;50.30;;;;;;4876283;28;88107;-81
2023/12/10 04:48:24;;;;;;;5.85;2.20;;;20.80;50.20;;;;;;4874182;28;88222;-80
2023/12/10 04:50:49;;;;;;;5.93;2.30;;;20.80;50.30;;;;;;4858665;28;87438;-82
2023/12/10 04:53:15;;;;;;;5.57;2.08;;;20.80;50.30;;;;;;4872191;28;87518;-83
2023/12/10 04:55:41;;;;;;;6.93;2.30;;;20.80;50.30;;;;;;4871384;28;88230;-81
2023/12/10 04:58:07;;;;;;;11.15;2.72;;;20.80;50.30;;;;;;4871899;28;88009;-81
2023/12/10 05:00:33;;;;;;;6.32;2.08;;;20.80;50.30;;;;;;4878011;28;87828;-80
2023/12/10 05:02:59;;;;;;;7.57;2.08;;;20.80;50.30;;;;;;4871944;28;88045;-81
2023/12/10 05:05:24;;;;;;;8.25;2.45;;;20.80;50.30;;;;;;4856186;28;90663;-81
2023/12/10 05:07:50;;;;;;;6.82;2.33;;;20.80;50.20;;;;;;4874832;28;89301;-81
2023/12/10 05:10:15;;;;;;;4.53;1.63;;;20.70;50.20;;;;;;4876361;28;87440;-82
2023/12/10 05:12:41;;;;;;;6.70;2.65;;;20.70;50.90;;;;;;4875956;28;87870;-81
2023/12/10 05:15:07;;;;;;;5.85;1.80;;;20.70;50.20;;;;;;4874946;28;89585;-81
2023/12/10 05:17:33;;;;;;;6.03;2.13;;;20.70;50.20;;;;;;4873194;28;88411;-80
2023/12/10 05:19:58;;;;;;;5.82;2.10;;;20.70;50.20;;;;;;4877040;28;87842;-79
2023/12/10 05:22:24;;;;;;;5.35;2.00;;;20.70;50.20;;;;;;4875750;28;88036;-80
2023/12/10 05:24:50;;;;;;;8.65;2.78;;;20.80;50.10;;;;;;4875107;28;88707;-80
2023/12/10 05:27:15;;;;;;;7.38;2.70;;;20.70;50.10;;;;;;4855537;28;89726;-80
2023/12/10 05:29:41;;;;;;;5.07;2.10;;;20.70;50.00;;;;;;4875227;28;88069;-80
2023/12/10 05:32:07;;;;;;;5.82;2.30;;;20.70;50.00;;;;;;4871947;28;88172;-79
2023/12/10 05:34:32;;;;;;;6.85;2.45;;;20.70;50.00;;;;;;4872220;28;88710;-81
2023/12/10 05:36:58;;;;;;;6.03;2.42;;;20.70;50.00;;;;;;4873991;28;89320;-82
2023/12/10 05:39:24;;;;;;;8.63;2.97;;;20.70;50.10;;;;;;4870594;28;87492;-81
2023/12/10 05:41:50;;;;;;;5.63;2.15;;;20.70;50.10;;;;;;4876476;28;88191;-82
2023/12/10 05:44:16;;;;;;;7.97;2.40;;;20.70;50.20;;;;;;4870147;28;87435;-82
2023/12/10 05:46:41;;;;;;;6.80;2.15;;;20.70;50.00;;;;;;4855497;28;89120;-80
2023/12/10 05:49:07;;;;;;;5.53;2.08;;;20.60;50.10;;;;;;4855482;28;87476;-80
2023/12/10 05:51:33;;;;;;;7.28;2.40;;;20.60;50.10;;;;;;4874177;28;87956;-80
2023/12/10 05:53:58;;;;;;;6.85;2.33;;;20.70;50.10;;;;;;4877058;28;91675;-82
2023/12/10 05:56:24;;;;;;;5.03;2.40;;;20.60;50.10;;;;;;4876289;28;89277;-82
2023/12/10 05:58:50;;;;;;;6.03;2.65;;;20.60;50.00;;;;;;4876812;28;87527;-81
2023/12/10 06:01:15;;;;;;;7.00;2.28;;;20.60;50.00;;;;;;4878013;28;87868;-82
2023/12/10 06:03:41;;;;;;;6.05;2.55;;;20.60;50.20;;;;;;4872717;28;88316;-80
2023/12/10 06:06:07;;;;;;;6.78;2.63;;;20.60;50.20;;;;;;4872448;28;88200;-80
2023/12/10 06:08:32;;;;;;;8.13;2.42;;;20.60;50.10;;;;;;4871284;28;87712;-80
2023/12/10 06:10:58;;;;;;;5.22;1.95;;;20.60;50.20;;;;;;4869294;28;87351;-83
2023/12/10 06:13:24;;;;;;;3.80;1.75;;;20.60;50.20;;;;;;4872978;28;88205;-82
2023/12/10 06:15:50;;;;;;;6.57;2.35;;;20.60;50.10;;;;;;4875625;28;88995;-80
2023/12/10 06:18:15;;;;;;;7.55;2.47;;;20.60;49.90;;;;;;4872478;28;88287;-79
2023/12/10 06:20:41;;;;;;;6.80;2.45;;;20.60;50.00;;;;;;4872309;28;87100;-82
2023/12/10 06:23:07;;;;;;;4.78;2.05;;;20.60;49.90;;;;;;4868910;28;88604;-81
2023/12/10 06:25:32;;;;;;;4.93;1.88;;;20.60;49.90;;;;;;4874196;28;87722;-80
2023/12/10 06:27:58;;;;;;;8.50;2.35;;;20.60;50.10;;;;;;4872980;28;89261;-82
2023/12/10 06:30:23;;;;;;;5.82;2.38;;;20.60;50.00;;;;;;4871641;28;87021;-80
2023/12/10 06:32:50;;;;;;;6.63;2.33;;;20.50;50.00;;;;;;4872231;28;88123;-80
2023/12/10 06:35:15;;;;;;;5.32;2.33;;;20.50;49.80;;;;;;4871150;28;87389;-80
2023/12/10 06:37:41;;;;;;;5.65;2.53;;;20.50;49.90;;;;;;4876694;28;87619;-82
2023/12/10 06:40:07;;;;;;;4.05;1.52;;;20.50;50.10;;;;;;4874091;28;87722;-81
2023/12/10 06:42:34;;;;;;;9.23;3.42;;;20.50;50.00;;;;;;4854997;28;92064;-80
2023/12/10 06:45:00;;;;;;;9.57;2.70;;;20.50;48.70;;;;;;4878826;28;88882;-79
2023/12/10 06:47:26;;;;;;;6.45;2.67;;;20.50;49.30;;;;;;4860064;28;86994;-80
2023/12/10 06:49:51;;;;;;;6.35;2.30;;;20.50;49.60;;;;;;4878125;28;87442;-80
2023/12/10 06:52:17;;;;;;;7.45;2.53;;;20.50;49.40;;;;;;4857645;28;89411;-82
2023/12/10 06:54:43;;;;;;;7.53;2.03;;;20.50;49.50;;;;;;4876067;28;88385;-81
2023/12/10 06:57:09;;;;;;;6.93;2.63;;;20.60;49.60;;;;;;4876406;28;87880;-78
2023/12/10 06:59:34;;;;;;;6.47;2.33;;;20.60;49.60;;;;;;4874903;28;87385;-80
2023/12/10 07:02:00;;;;;;;6.28;2.03;;;20.60;49.50;;;;;;4876136;28;89729;-81
2023/12/10 07:04:26;;;;;;;6.47;2.80;;;20.60;49.60;;;;;;4876149;28;88491;-79
2023/12/10 07:06:51;;;;;;;6.63;1.80;;;20.60;49.70;;;;;;4875987;28;88922;-83
2023/12/10 07:09:17;;;;;;;7.72;1.80;;;20.70;49.80;;;;;;4876036;28;87568;-80
2023/12/10 07:11:43;;;;;;;5.53;2.22;;;20.70;49.90;;;;;;4873941;28;88022;-81
2023/12/10 07:14:09;;;;;;;9.68;2.70;;;20.70;49.90;;;;;;4876680;28;89039;-81
2023/12/10 07:16:34;;;;;;;6.28;2.22;;;20.80;50.20;;;;;;4857831;28;87136;-81
2023/12/10 07:19:00;;;;;;;9.18;2.80;;;20.80;50.20;;;;;;4875535;28;87742;-84
2023/12/10 07:21:26;;;;;;;8.40;3.38;;;20.80;50.20;;;;;;4863876;28;88915;-86
2023/12/10 07:23:51;;;;;;;7.78;2.65;;;20.80;50.40;;;;;;4877120;28;88842;-81
2023/12/10 07:26:26;;;;;;;9.35;2.28;;;20.90;50.50;;;;;;4873313;28;87908;-81
2023/12/10 07:28:52;;;;;;;8.00;2.10;;;21.00;50.30;;;;;;4859376;28;91588;-82
2023/12/10 07:31:18;;;;;;;7.32;2.35;;;21.10;50.20;;;;;;4877857;28;89254;-82
2023/12/10 07:33:44;;;;;;;6.10;2.33;;;21.20;50.20;;;;;;4879141;28;88182;-82
2023/12/10 07:36:10;;;;;;;7.53;2.53;;;21.20;50.00;;;;;;4881771;28;87974;-82
2023/12/10 07:38:36;;;;;;;9.90;2.60;;;21.30;50.10;;;;;;4881572;28;88184;-82
2023/12/10 07:41:04;;;;;;;10.05;3.05;;;21.40;49.90;;;;;;4879544;28;87698;-82
2023/12/10 07:43:30;;;;;;;7.70;2.67;;;21.50;49.60;;;;;;4883552;28;88371;-82
2023/12/10 07:45:55;;;;;;;8.10;2.50;;;21.50;49.50;;;;;;4849147;28;87829;-81
2023/12/10 07:48:21;;;;;;;10.10;2.58;;;21.60;49.60;;;;;;4880144;28;87768;-82
2023/12/10 07:50:47;;;;;;;9.52;3.15;;;21.60;49.30;;;;;;4878579;28;88091;-81
2023/12/10 07:53:12;;;;;;;9.45;2.72;;;21.70;49.20;;;;;;4877832;28;87496;-83
2023/12/10 07:55:38;;;;;;;4.53;1.90;;;21.80;48.90;;;;;;4876024;28;89047;-83
2023/12/10 07:58:04;;;;;;;7.88;2.47;;;21.80;49.10;;;;;;4878907;28;87517;-83
2023/12/10 08:00:30;;;;;;;8.25;3.25;;;21.90;49.00;;;;;;4870975;28;90752;-81
2023/12/10 08:02:55;;;;;;;6.85;2.42;;;21.90;48.80;;;;;;4878985;28;89307;-83
2023/12/10 08:05:21;;;;;;;12.68;2.53;;;21.90;48.70;;;;;;4862634;28;87548;-83
2023/12/10 08:07:47;;;;;;;9.68;2.47;;;21.90;48.50;;;;;;4860059;28;88844;-84
2023/12/10 08:10:13;;;;;;;13.80;3.08;;;22.00;48.70;;;;;;4875648;28;87814;-83
2023/12/10 08:12:39;;;;;;;8.70;2.47;;;22.00;48.70;;;;;;4878819;28;90901;-82
2023/12/10 08:15:06;;;;;;;14.38;3.40;;;22.00;48.60;;;;;;4862486;28;87736;-84
2023/12/10 08:17:31;;;;;;;14.65;3.97;;;22.10;48.40;;;;;;4872606;28;88084;-83
2023/12/10 08:19:57;;;;;;;17.35;4.15;;;22.10;48.50;;;;;;4875811;28;89792;-82
2023/12/10 08:22:23;;;;;;;13.65;3.80;;;22.10;48.40;;;;;;4864056;28;89643;-83
2023/12/10 08:24:53;;;;;;;14.45;3.42;;;22.10;48.40;;;;;;4875170;28;88513;-84
2023/12/10 08:27:19;;;;;;;15.57;4.18;;;22.20;48.40;;;;;;4879077;28;87842;-84
2023/12/10 08:29:45;;;;;;;13.73;4.53;;;22.20;48.40;;;;;;4877174;28;89155;-87
2023/12/10 08:32:10;;;;;;;22.90;5.10;;;22.20;47.90;;;;;;4860943;28;89705;-81
2023/12/10 08:34:36;;;;;;;16.45;5.72;;;22.20;47.20;;;;;;4880969;28;87585;-84
2023/12/10 08:37:03;;;;;;;22.15;6.07;;;22.20;47.30;;;;;;4878328;28;88059;-82
2023/12/10 08:39:29;;;;;;;23.73;6.65;;;22.20;47.30;;;;;;4859968;28;89198;-81
2023/12/10 08:41:55;;;;;;;22.17;5.60;;;22.20;47.40;;;;;;4875368;28;88379;-82
2023/12/10 08:44:20;;;;;;;20.92;5.35;;;22.20;47.40;;;;;;4875769;28;88722;-81
2023/12/10 08:46:46;;;;;;;15.55;5.30;;;22.20;47.50;;;;;;4877425;28;87882;-82
2023/12/10 08:49:12;;;;;;;18.73;4.93;;;22.20;47.30;;;;;;4858961;28;89829;-81
2023/12/10 08:51:37;;;;;;;26.67;6.57;;;22.20;46.90;;;;;;4858049;28;89659;-84
2023/12/10 08:54:03;;;;;;;23.85;6.03;;;22.20;46.70;;;;;;4875856;28;87341;-80
2023/12/10 08:56:29;;;;;;;15.68;5.28;;;22.20;46.40;;;;;;4875581;28;87559;-82
2023/12/10 08:58:55;;;;;;;16.02;4.95;;;22.30;46.60;;;;;;4872757;28;88044;-85
2023/12/10 09:01:21;;;;;;;17.92;4.95;;;22.30;46.90;;;;;;4875719;28;87648;-84
2023/12/10 09:03:47;;;;;;;17.75;4.60;;;22.20;46.10;;;;;;4872061;28;87711;-80
2023/12/10 09:06:13;;;;;;;16.35;4.40;;;22.20;46.40;;;;;;4874775;28;88479;-81
2023/12/10 09:08:39;;;;;;;16.25;5.10;;;22.20;46.30;;;;;;4872651;28;88593;-81
2023/12/10 09:11:04;;;;;;;15.30;5.10;;;22.20;46.00;;;;;;4873289;28;89247;-82
2023/12/10 09:13:35;;;;;;;18.10;4.47;;;22.20;46.40;;;;;;4872914;28;88161;-81
2023/12/10 09:16:01;;;;;;;10.65;3.63;;;22.20;46.50;;;;;;4874038;28;87201;-80
2023/12/10 09:18:26;;;;;;;16.10;4.43;;;22.20;46.50;;;;;;4855211;28;91823;-81
2023/12/10 09:20:53;;;;;;;12.88;3.33;;;22.20;47.20;;;;;;4873582;28;88427;-82
2023/12/10 09:23:19;;;;;;;18.17;5.00;;;22.20;46.40;;;;;;4874392;28;87375;-81
2023/12/10 09:25:44;;;;;;;12.23;3.92;;;22.20;46.40;;;;;;4871942;28;86402;-83
2023/12/10 09:28:11;;;;;;;15.68;5.18;;;22.20;46.40;;;;;;4876525;28;88149;-82
2023/12/10 09:30:36;;;;;;;15.90;5.70;;;22.20;46.10;;;;;;4855610;28;90309;-83
2023/12/10 09:33:02;;;;;;;37.58;10.55;;;22.20;46.50;;;;;;4882246;28;88459;-83
2023/12/10 09:35:28;;;;;;;45.55;11.07;;;22.20;46.60;;;;;;4878680;28;88157;-83
2023/12/10 09:37:56;;;;;;;46.78;11.73;;;22.20;46.20;;;;;;4871241;28;88028;-81
2023/12/10 09:40:21;;;;;;;39.67;10.25;;;22.20;45.80;;;;;;4876562;28;87830;-81
2023/12/10 09:42:47;;;;;;;35.83;9.80;;;22.30;45.80;;;;;;4852116;28;87790;-79
2023/12/10 09:45:13;;;;;;;29.63;9.25;;;22.30;45.30;;;;;;4876373;28;87859;-84
2023/12/10 09:47:40;;;;;;;29.23;8.63;;;22.30;45.40;;;;;;4870556;28;88615;-85
2023/12/10 09:50:06;;;;;;;31.77;8.27;;;22.30;45.80;;;;;;4878795;28;87133;-80
2023/12/10 09:52:32;;;;;;;28.27;8.25;;;22.30;45.90;;;;;;4872179;28;87199;-83
2023/12/10 09:54:58;;;;;;;33.25;8.95;;;22.30;45.50;;;;;;4842037;28;88810;-82
2023/12/10 09:57:26;;;;;;;25.38;7.95;;;22.30;45.60;;;;;;4870699;28;89592;-80
2023/12/10 09:59:52;;;;;;;26.17;7.75;;;22.30;45.50;;;;;;4859489;28;90652;-82
2023/12/10 10:02:17;;;;;;;26.90;7.30;;;22.30;45.80;;;;;;4873662;28;87792;-81
2023/12/10 10:04:43;;;;;;;21.20;6.70;;;22.30;45.80;;;;;;4856398;28;88246;-83
2023/12/10 10:07:09;;;;;;;29.20;7.70;;;22.30;45.70;;;;;;4866137;28;89504;-83
2023/12/10 10:09:36;;;;;;;25.45;6.85;;;22.30;45.80;;;;;;4873282;28;87891;-80
2023/12/10 10:12:03;;;;;;;22.67;6.38;;;22.40;45.50;;;;;;4872011;28;86930;-81
2023/12/10 10:14:28;;;;;;;20.98;6.60;;;22.30;45.90;;;;;;4879082;28;87411;-81
2023/12/10 10:16:54;;;;;;;25.77;7.65;;;22.40;45.90;;;;;;4873684;28;88597;-81
2023/12/10 10:19:20;;;;;;;20.05;5.93;;;22.40;45.90;;;;;;4856617;28;88537;-80
2023/12/10 10:21:46;;;;;;;22.50;6.50;;;22.40;45.70;;;;;;4854244;28;88324;-80
2023/12/10 10:24:12;;;;;;;19.88;6.72;;;22.40;45.90;;;;;;4878675;28;87691;-79
2023/12/10 10:26:39;;;;;;;23.67;8.07;;;22.40;46.00;;;;;;4870618;28;88085;-80
2023/12/10 10:29:06;;;;;;;30.63;8.40;;;22.40;46.20;;;;;;4873024;28;88197;-81
2023/12/10 10:31:32;;;;;;;18.35;6.75;;;22.40;46.30;;;;;;4874047;28;87925;-79
2023/12/10 10:34:01;;;;;;;22.08;6.20;;;22.40;46.20;;;;;;4874302;28;87951;-79
2023/12/10 10:36:27;;;;;;;16.75;5.72;;;22.40;46.50;;;;;;4872219;28;88205;-78
2023/12/10 10:38:53;;;;;;;21.73;6.72;;;22.40;46.40;;;;;;4877165;28;88282;-79
2023/12/10 10:41:20;;;;;;;15.52;5.18;;;22.40;46.10;;;;;;4873074;28;87316;-81
2023/12/10 10:43:45;;;;;;;17.20;4.78;;;22.50;46.10;;;;;;4873083;28;87419;-80
2023/12/10 10:46:11;;;;;;;20.52;5.97;;;22.50;46.40;;;;;;4874407;28;89589;-82
2023/12/10 10:48:41;;;;;;;19.00;5.78;;;22.50;46.70;;;;;;4855492;28;88788;-83
2023/12/10 10:51:07;;;;;;;28.30;6.10;;;22.50;47.00;;;;;;4874829;28;88043;-82
2023/12/10 10:53:37;;;;;;;27.25;7.03;;;22.50;47.80;;;;;;4872057;28;87835;-80
2023/12/10 10:56:05;;;;;;;17.90;6.53;;;22.50;47.20;;;;;;4870689;28;88983;-80
2023/12/10 10:58:31;;;;;;;23.25;6.63;;;22.50;47.30;;;;;;4873780;28;87909;-80
2023/12/10 11:00:58;;;;;;;21.77;5.90;;;22.50;47.40;;;;;;4870400;28;87948;-81
2023/12/10 11:03:26;;;;;;;20.05;6.13;;;22.50;47.50;;;;;;4872645;28;87842;-80
2023/12/10 11:05:54;;;;;;;16.77;5.40;;;22.60;47.70;;;;;;4870507;28;89438;-81
2023/12/10 11:08:20;;;;;;;20.08;5.68;;;22.60;48.00;;;;;;4869889;28;88452;-81
2023/12/10 11:10:55;;;;;;;15.48;5.72;;;22.60;48.10;;;;;;4871672;28;88743;-81
2023/12/10 11:13:44;;;;;;;20.65;5.57;;;22.60;48.10;;;;;;4852116;28;89221;-81
2023/12/10 11:16:10;;;;;;;19.60;5.78;;;22.60;48.10;;;;;;4876224;28;88521;-80
2023/12/10 11:18:56;;;;;;;15.48;5.22;;;22.60;48.10;;;;;;4878261;28;87638;-83
2023/12/10 11:21:22;;;;;;;18.40;5.13;;;22.60;48.10;;;;;;4875757;28;87174;-82
2023/12/10 11:23:48;;;;;;;15.35;4.70;;;22.60;48.10;;;;;;4874334;28;95835;-80
2023/12/10 11:26:14;;;;;;;12.82;4.97;;;22.60;48.10;;;;;;4872305;28;88240;-81
2023/12/10 11:28:44;;;;;;;16.85;4.85;;;22.60;47.60;;;;;;4868757;28;87554;-81
2023/12/10 11:31:10;;;;;;;16.27;5.03;;;22.70;47.60;;;;;;4878174;28;87442;-82
2023/12/10 11:33:40;;;;;;;17.33;5.13;;;22.70;47.70;;;;;;4856708;28;87869;-81
2023/12/10 11:36:07;;;;;;;16.83;4.57;;;22.60;47.60;;;;;;4875251;28;89139;-81
2023/12/10 11:38:32;;;;;;;12.52;4.63;;;22.60;48.00;;;;;;4873629;28;87945;-83
2023/12/10 11:40:58;;;;;;;14.48;4.75;;;22.60;47.80;;;;;;4871868;28;91437;-81
2023/12/10 11:43:25;;;;;;;19.25;4.90;;;22.60;48.00;;;;;;4876513;28;88040;-82
2023/12/10 11:45:52;;;;;;;11.90;4.53;;;22.60;48.10;;;;;;4873073;28;88728;-79
2023/12/10 11:48:19;;;;;;;19.08;5.85;;;22.60;48.40;;;;;;4871563;28;88251;-79
2023/12/10 11:50:46;;;;;;;16.98;5.00;;;22.60;48.80;;;;;;4840536;28;87680;-83
2023/12/10 11:53:15;;;;;;;17.48;4.15;;;22.60;49.10;;;;;;4846134;28;90812;-83
2023/12/10 11:55:41;;;;;;;16.80;4.55;;;22.60;49.10;;;;;;4860305;28;91863;-84
2023/12/10 11:58:08;;;;;;;15.80;4.40;;;22.60;49.40;;;;;;4875272;28;88563;-81
2023/12/10 12:00:34;;;;;;;11.25;3.75;;;22.60;49.40;;;;;;4875657;28;88509;-82
2023/12/10 12:03:05;;;;;;;17.42;4.88;;;22.60;49.80;;;;;;4858418;28;89007;-82
2023/12/10 12:05:31;;;;;;;15.15;4.53;;;22.70;49.90;;;;;;4858500;28;90203;-81
2023/12/10 12:07:59;;;;;;;16.42;4.40;;;22.70;49.20;;;;;;4874189;28;88042;-82
2023/12/10 12:10:36;;;;;;;15.02;3.97;;;22.70;49.50;;;;;;4875778;28;87538;-81
2023/12/10 12:13:01;;;;;;;19.00;5.38;;;22.70;49.30;;;;;;4873599;28;87535;-79
2023/12/10 12:15:27;;;;;;;16.42;5.43;;;22.60;49.10;;;;;;4874254;28;88618;-80
2023/12/10 12:17:53;;;;;;;17.17;3.85;;;22.60;48.80;;;;;;4876914;28;88160;-79
2023/12/10 12:20:24;;;;;;;15.05;4.82;;;22.60;49.00;;;;;;4878858;28;87843;-79
2023/12/10 12:22:53;;;;;;;17.85;5.18;;;22.60;48.80;;;;;;4871280;28;87030;-80
2023/12/10 12:25:19;;;;;;;20.60;5.32;;;22.50;48.60;;;;;;4873676;28;89611;-80
2023/12/10 12:27:45;;;;;;;20.50;5.43;;;22.50;49.10;;;;;;4871066;28;89230;-81
2023/12/10 12:30:12;;;;;;;19.00;5.30;;;22.50;48.80;;;;;;4873671;28;87642;-81
2023/12/10 12:32:37;;;;;;;18.63;5.53;;;22.40;48.00;;;;;;4872242;28;87884;-81
2023/12/10 12:35:05;;;;;;;14.73;4.75;;;22.40;48.30;;;;;;4878046;28;88144;-82
2023/12/10 12:37:31;;;;;;;16.60;5.40;;;22.40;48.30;;;;;;4858567;28;89793;-81